Time;durP1;ratioP1;P1;durP2;ratioP2;P2;SDS_P1;SDS_P2;PMS_P1;PMS_P2;Temp;Humidity;BMP_temperature;BMP_pressure;BME280_temperature;BME280_humidity;BME280_pressure;Samples;Min_cycle;Max_cycle;Signal;HPM_P1;HPM_P2
2022/08/26 00:00:54;;;;;;;33.90;30.27;;;22.10;99.90;;;;;;5069531;28;20032;-46
2022/08/26 00:03:22;;;;;;;35.60;29.73;;;22.00;99.90;;;;;;5072097;28;20029;-48
2022/08/26 00:05:49;;;;;;;33.03;29.52;;;21.90;99.90;;;;;;5071969;28;20479;-48
2022/08/26 00:08:18;;;;;;;33.05;29.25;;;21.80;99.90;;;;;;5071501;28;20039;-47
2022/08/26 00:10:44;;;;;;;35.70;30.15;;;21.90;99.90;;;;;;5070221;28;20072;-46
2022/08/26 00:13:10;;;;;;;32.60;28.30;;;21.80;99.90;;;;;;5071856;28;20113;-45
2022/08/26 00:15:37;;;;;;;32.92;27.85;;;21.70;99.90;;;;;;5071550;28;20048;-44
2022/08/26 00:18:04;;;;;;;32.15;28.27;;;21.70;99.90;;;;;;5071679;28;20651;-46
2022/08/26 00:20:31;;;;;;;31.65;25.98;;;21.80;99.90;;;;;;5071585;28;20043;-46
2022/08/26 00:22:57;;;;;;;32.45;26.23;;;21.80;99.90;;;;;;5070313;28;20066;-48
2022/08/26 00:25:23;;;;;;;31.23;25.95;;;21.80;99.90;;;;;;5071513;28;20028;-48
2022/08/26 00:27:49;;;;;;;29.25;25.25;;;21.80;99.90;;;;;;5071023;28;20055;-44
2022/08/26 00:30:24;;;;;;;28.92;23.50;;;21.80;99.90;;;;;;5071179;28;20040;-46
2022/08/26 00:32:50;;;;;;;31.75;23.65;;;21.80;99.90;;;;;;5068678;28;20522;-45
2022/08/26 00:35:16;;;;;;;26.90;22.52;;;21.80;99.90;;;;;;5071309;28;20076;-47
2022/08/26 00:37:43;;;;;;;27.70;21.08;;;21.80;99.90;;;;;;5070858;28;20390;-44
2022/08/26 00:40:13;;;;;;;25.55;20.90;;;21.80;99.90;;;;;;5071157;28;20048;-45
2022/08/26 00:42:38;;;;;;;26.70;19.25;;;21.80;99.90;;;;;;5071102;28;20031;-45
2022/08/26 00:45:05;;;;;;;25.30;19.65;;;21.70;99.90;;;;;;5070904;28;20415;-49
2022/08/26 00:47:36;;;;;;;30.17;18.58;;;21.70;99.90;;;;;;5070797;28;20032;-46
2022/08/26 00:50:06;;;;;;;21.75;16.70;;;21.80;99.90;;;;;;5069590;28;20080;-47
2022/08/26 00:52:33;;;;;;;23.83;16.42;;;21.80;99.90;;;;;;5069155;28;20086;-46
2022/08/26 00:55:19;;;;;;;23.50;16.50;;;21.70;99.90;;;;;;5070699;28;20415;-46
2022/08/26 00:57:47;;;;;;;20.58;15.55;;;21.70;99.90;;;;;;5070780;28;20047;-47
2022/08/26 01:00:17;;;;;;;20.88;15.82;;;21.70;99.90;;;;;;5070426;28;20036;-47
2022/08/26 01:02:46;;;;;;;21.88;15.30;;;21.70;99.90;;;;;;5070835;28;20191;-45
2022/08/26 01:05:12;;;;;;;21.52;14.98;;;21.60;99.90;;;;;;5070079;28;20120;-46
2022/08/26 01:07:38;;;;;;;19.30;14.23;;;21.70;99.90;;;;;;5070217;28;20120;-47
2022/08/26 01:10:09;;;;;;;21.48;14.45;;;21.70;99.90;;;;;;5070716;28;20029;-45
2022/08/26 01:12:58;;;;;;;18.35;13.60;;;21.70;99.90;;;;;;5070970;28;20032;-46
2022/08/26 01:15:34;;;;;;;20.95;13.98;;;21.60;99.90;;;;;;5069939;28;20139;-47
2022/08/26 01:18:02;;;;;;;20.13;14.38;;;21.70;99.90;;;;;;5068437;28;20036;-46
2022/08/26 01:20:34;;;;;;;19.30;12.98;;;21.60;99.90;;;;;;5069220;28;20059;-45
2022/08/26 01:23:03;;;;;;;18.58;12.63;;;21.60;99.90;;;;;;5070069;28;20040;-45
2022/08/26 01:25:32;;;;;;;22.45;12.95;;;21.50;99.90;;;;;;5070367;28;20101;-45
2022/08/26 01:28:01;;;;;;;18.15;13.07;;;21.40;99.90;;;;;;5070548;28;20103;-45
2022/08/26 01:30:29;;;;;;;20.88;12.85;;;21.50;99.90;;;;;;5070175;28;20033;-45
2022/08/26 01:32:58;;;;;;;17.58;11.65;;;21.40;99.90;;;;;;5070512;28;20480;-46
2022/08/26 01:35:24;;;;;;;20.17;11.98;;;21.40;99.90;;;;;;5070322;28;20127;-46
2022/08/26 01:37:53;;;;;;;21.45;11.77;;;21.40;99.90;;;;;;5069674;28;20460;-46
2022/08/26 01:40:28;;;;;;;18.83;10.68;;;21.40;99.90;;;;;;5068904;28;20471;-47
2022/08/26 01:42:54;;;;;;;16.25;10.85;;;21.40;99.90;;;;;;5070553;28;20044;-46
2022/08/26 01:45:26;;;;;;;17.08;10.52;;;21.40;99.90;;;;;;5069957;28;20041;-44
2022/08/26 01:47:55;;;;;;;16.27;10.93;;;21.30;99.90;;;;;;5070366;28;20048;-47
2022/08/26 01:50:26;;;;;;;16.17;10.90;;;21.30;99.90;;;;;;5070066;28;20040;-45
2022/08/26 01:52:53;;;;;;;14.82;10.35;;;;;;;;;;5070431;28;20032;-46
2022/08/26 01:55:23;;;;;;;16.45;10.13;;;21.30;99.90;;;;;;5069949;28;20040;-49
2022/08/26 01:57:52;;;;;;;13.57;10.23;;;21.30;99.90;;;;;;5070130;28;20036;-45
2022/08/26 02:00:18;;;;;;;16.60;10.05;;;21.30;99.90;;;;;;5067623;28;20136;-46
2022/08/26 02:02:46;;;;;;;17.10;9.55;;;21.30;99.90;;;;;;5067972;28;20115;-46
2022/08/26 02:05:18;;;;;;;18.13;9.27;;;21.30;99.90;;;;;;5068687;28;20083;-45
2022/08/26 02:07:45;;;;;;;15.43;8.63;;;21.30;99.90;;;;;;5069482;28;20043;-47
2022/08/26 02:10:11;;;;;;;15.30;8.13;;;21.30;99.90;;;;;;5069582;28;20036;-45
2022/08/26 02:12:38;;;;;;;10.43;7.30;;;21.20;99.90;;;;;;5069841;28;20484;-46
2022/08/26 02:15:08;;;;;;;14.93;6.75;;;21.30;99.90;;;;;;5068329;28;20068;-45
2022/08/26 02:17:45;;;;;;;11.50;6.72;;;21.30;99.90;;;;;;5071354;28;20028;-46
2022/08/26 02:20:15;;;;;;;11.65;6.28;;;21.20;99.90;;;;;;5074100;28;20494;-45
2022/08/26 02:22:43;;;;;;;13.68;7.00;;;21.30;99.90;;;;;;5074303;28;20420;-46
2022/08/26 02:25:11;;;;;;;9.93;5.82;;;21.20;99.90;;;;;;5073540;28;20058;-47
2022/08/26 02:27:38;;;;;;;10.95;6.35;;;21.10;99.90;;;;;;5072425;28;20044;-45
2022/08/26 02:30:11;;;;;;;11.35;6.07;;;21.20;99.90;;;;;;5073478;28;20040;-45
2022/08/26 02:32:37;;;;;;;11.18;6.10;;;21.00;99.90;;;;;;5072748;28;20036;-43
2022/08/26 02:35:04;;;;;;;13.02;6.70;;;21.00;99.90;;;;;;5073367;28;20099;-45
2022/08/26 02:37:31;;;;;;;13.48;6.00;;;21.00;99.90;;;;;;5073394;28;20475;-51
2022/08/26 02:39:57;;;;;;;11.18;5.78;;;20.90;99.90;;;;;;5073232;28;20031;-46
2022/08/26 02:42:22;;;;;;;12.93;6.05;;;20.90;99.90;;;;;;5073720;28;20114;-47
2022/08/26 02:44:48;;;;;;;13.75;6.05;;;20.90;99.90;;;;;;5072955;28;20499;-47
2022/08/26 02:47:15;;;;;;;10.32;6.00;;;20.90;99.90;;;;;;5070820;28;20283;-49
2022/08/26 02:49:43;;;;;;;10.02;5.40;;;20.90;99.90;;;;;;5073103;28;20076;-45
2022/08/26 02:52:09;;;;;;;11.18;5.20;;;20.80;99.90;;;;;;5073099;28;20039;-45
2022/08/26 02:54:35;;;;;;;12.23;5.10;;;20.80;99.90;;;;;;5071982;28;20049;-48
2022/08/26 02:57:01;;;;;;;11.00;4.63;;;20.70;99.90;;;;;;5073253;28;20036;-44
2022/08/26 02:59:28;;;;;;;9.48;3.97;;;20.70;99.90;;;;;;5073153;28;20115;-48
2022/08/26 03:01:54;;;;;;;11.63;4.43;;;20.70;99.90;;;;;;5072797;28;20047;-44
2022/08/26 03:04:20;;;;;;;10.70;3.60;;;20.60;99.90;;;;;;5073159;28;20032;-47
2022/08/26 03:06:49;;;;;;;10.32;3.50;;;20.60;99.90;;;;;;5073094;28;20097;-46
2022/08/26 03:09:17;;;;;;;10.10;3.28;;;20.50;99.90;;;;;;5071386;28;20134;-46
2022/08/26 03:11:44;;;;;;;9.32;3.45;;;20.60;99.90;;;;;;5071704;28;20101;-47
2022/08/26 03:14:10;;;;;;;5.95;3.20;;;20.40;99.90;;;;;;5073018;28;20547;-44
2022/08/26 03:16:36;;;;;;;11.02;3.20;;;20.40;99.90;;;;;;5072637;28;20116;-47
2022/08/26 03:19:04;;;;;;;9.27;3.30;;;20.40;99.90;;;;;;5072807;28;20037;-46
2022/08/26 03:21:30;;;;;;;8.50;2.92;;;20.30;99.90;;;;;;5071061;28;20101;-49
2022/08/26 03:23:56;;;;;;;10.55;3.38;;;20.30;99.90;;;;;;5072912;28;20036;-44
2022/08/26 03:26:22;;;;;;;11.23;2.65;;;20.20;99.90;;;;;;5072367;28;20377;-49
2022/08/26 03:31:32;;;;;;;9.43;2.33;;;20.20;99.90;;;;;;5070154;28;20651;-45
2022/08/26 03:33:58;;;;;;;6.97;2.40;;;20.40;99.90;;;;;;5071291;28;20416;-46
2022/08/26 03:36:24;;;;;;;10.15;2.60;;;20.30;99.90;;;;;;5071241;28;20475;-46
2022/08/26 03:38:50;;;;;;;8.82;2.50;;;20.30;99.90;;;;;;5070379;28;20043;-46
2022/08/26 03:41:16;;;;;;;8.80;2.40;;;20.20;99.90;;;;;;5072346;28;20040;-45
2022/08/26 03:43:43;;;;;;;9.57;2.30;;;20.30;99.90;;;;;;5071006;28;20040;-49
2022/08/26 03:46:10;;;;;;;9.63;2.20;;;20.20;99.90;;;;;;5072083;28;20060;-48
2022/08/26 03:48:37;;;;;;;7.63;1.92;;;20.20;99.90;;;;;;5070529;28;20047;-46
2022/08/26 03:51:09;;;;;;;8.15;2.22;;;20.20;99.90;;;;;;5072041;28;21175;-48
2022/08/26 03:53:35;;;;;;;9.68;1.88;;;20.20;99.90;;;;;;5072177;28;20127;-49
2022/08/26 03:56:01;;;;;;;7.78;1.70;;;20.20;99.90;;;;;;5072162;28;20127;-46
2022/08/26 03:58:27;;;;;;;6.53;1.60;;;20.20;99.90;;;;;;5071740;28;20487;-43
2022/08/26 04:00:52;;;;;;;6.45;1.95;;;20.20;99.90;;;;;;5071986;28;20064;-47
2022/08/26 04:03:56;;;;;;;8.80;1.88;;;20.10;99.90;;;;;;5071976;28;20070;-48
2022/08/26 04:06:04;;;;;;;9.15;2.03;;;20.20;99.90;;;;;;5070120;28;20048;-45
2022/08/26 04:08:30;;;;;;;10.38;2.05;;;20.20;99.90;;;;;;5071514;28;20095;-44
2022/08/26 04:10:55;;;;;;;9.60;1.98;;;20.20;99.90;;;;;;5071981;28;20037;-45
2022/08/26 04:13:21;;;;;;;8.30;1.80;;;20.20;99.90;;;;;;5070241;28;20036;-46
2022/08/26 04:15:47;;;;;;;10.50;1.90;;;20.20;99.90;;;;;;5071748;28;20034;-45
2022/08/26 04:18:12;;;;;;;9.95;1.90;;;20.20;99.90;;;;;;5069675;28;20040;-46
2022/08/26 04:20:38;;;;;;;9.48;2.15;;;20.20;99.90;;;;;;5070213;28;20047;-48
2022/08/26 04:23:04;;;;;;;9.75;1.67;;;20.30;99.90;;;;;;5069520;28;20097;-45
2022/08/26 04:25:29;;;;;;;8.93;1.95;;;20.20;99.90;;;;;;5071514;28;20040;-48
2022/08/26 04:27:55;;;;;;;7.50;1.88;;;20.20;99.90;;;;;;5070808;28;20028;-45
2022/08/26 04:30:21;;;;;;;11.38;1.95;;;20.30;99.90;;;;;;5071216;28;20120;-43
2022/08/26 04:32:47;;;;;;;10.65;1.90;;;20.20;99.90;;;;;;5071476;28;20126;-45
2022/08/26 04:35:13;;;;;;;9.80;2.13;;;20.20;99.90;;;;;;5071733;28;20036;-47
2022/08/26 04:37:39;;;;;;;13.00;2.42;;;20.20;99.90;;;;;;5069396;28;20468;-45
2022/08/26 04:40:08;;;;;;;10.02;2.15;;;20.20;99.90;;;;;;5071153;28;20040;-45
2022/08/26 04:42:34;;;;;;;8.30;2.03;;;20.20;99.90;;;;;;5071410;28;20194;-47
2022/08/26 04:45:01;;;;;;;9.13;1.75;;;20.20;99.90;;;;;;5070748;28;20411;-44
2022/08/26 04:47:27;;;;;;;9.35;2.25;;;20.20;99.90;;;;;;5071011;28;20036;-46
2022/08/26 04:49:56;;;;;;;8.82;1.85;;;20.20;99.90;;;;;;5071145;28;20048;-45
2022/08/26 04:52:22;;;;;;;7.65;1.75;;;20.30;99.90;;;;;;5069548;28;20063;-45
2022/08/26 04:54:48;;;;;;;7.35;2.20;;;20.20;99.90;;;;;;5071101;28;20170;-46
2022/08/26 04:57:14;;;;;;;11.80;2.28;;;20.30;99.90;;;;;;5070774;28;20465;-46
2022/08/26 04:59:40;;;;;;;11.60;2.15;;;20.40;99.90;;;;;;5070959;28;20036;-49
2022/08/26 05:02:06;;;;;;;9.25;1.80;;;20.40;99.90;;;;;;5068863;28;20040;-47
2022/08/26 05:04:32;;;;;;;9.68;2.05;;;20.40;99.90;;;;;;5069153;28;20075;-45
2022/08/26 05:06:58;;;;;;;8.50;2.00;;;20.40;99.90;;;;;;5070766;28;20033;-45
2022/08/26 05:09:24;;;;;;;9.32;2.10;;;20.40;99.90;;;;;;5070344;28;20404;-49
2022/08/26 05:11:50;;;;;;;12.77;2.53;;;20.50;99.90;;;;;;5070364;28;20495;-52
2022/08/26 05:14:16;;;;;;;12.77;2.45;;;20.50;99.90;;;;;;5069147;28;20041;-46
2022/08/26 05:16:42;;;;;;;15.57;3.08;;;20.40;99.90;;;;;;5069892;28;20040;-45
2022/08/26 05:19:08;;;;;;;12.05;3.15;;;20.50;99.90;;;;;;5070315;28;20036;-46
2022/08/26 05:21:33;;;;;;;13.13;3.08;;;20.50;99.90;;;;;;5070561;28;20044;-46
2022/08/26 05:24:00;;;;;;;13.48;2.80;;;20.50;99.90;;;;;;5070474;28;20051;-46
2022/08/26 05:26:28;;;;;;;13.80;3.08;;;20.50;99.90;;;;;;5070176;28;20036;-45
2022/08/26 05:28:55;;;;;;;14.05;3.67;;;20.50;99.90;;;;;;5070564;28;20074;-46
2022/08/26 05:31:32;;;;;;;15.13;3.83;;;20.40;99.90;;;;;;5070312;28;20527;-45
2022/08/26 05:33:59;;;;;;;14.00;3.88;;;20.50;99.90;;;;;;5070318;28;20024;-44
2022/08/26 05:36:27;;;;;;;11.73;2.80;;;20.40;99.90;;;;;;5069738;28;20051;-46
2022/08/26 05:38:54;;;;;;;16.00;3.15;;;20.50;99.90;;;;;;5069486;28;20443;-44
2022/08/26 05:41:23;;;;;;;13.95;3.05;;;20.40;99.90;;;;;;5069634;28;20052;-43
2022/08/26 05:43:51;;;;;;;10.95;2.60;;;20.50;99.90;;;;;;5069953;28;20083;-45
2022/08/26 05:46:17;;;;;;;11.82;2.30;;;20.40;99.90;;;;;;5068502;28;20044;-47
2022/08/26 05:48:42;;;;;;;13.48;2.70;;;20.40;99.90;;;;;;5067924;28;20036;-45
2022/08/26 05:51:10;;;;;;;16.52;3.17;;;20.40;99.90;;;;;;5068213;28;20039;-46
2022/08/26 05:53:37;;;;;;;15.45;3.10;;;20.50;99.90;;;;;;5069344;28;20037;-46
2022/08/26 05:56:05;;;;;;;12.68;3.42;;;20.50;99.90;;;;;;5069621;28;20040;-47
2022/08/26 05:58:32;;;;;;;10.80;2.95;;;20.50;99.90;;;;;;5070383;28;20451;-44
2022/08/26 06:01:14;;;;;;;16.50;3.47;;;20.60;99.90;;;;;;5067866;28;20080;-49
2022/08/26 06:03:43;;;;;;;11.98;3.25;;;20.50;99.90;;;;;;5067972;28;20132;-44
2022/08/26 06:06:21;;;;;;;11.07;2.80;;;20.50;99.90;;;;;;5069862;28;20036;-47
2022/08/26 06:08:47;;;;;;;17.80;3.15;;;20.60;99.90;;;;;;5069487;28;20032;-45
2022/08/26 06:11:15;;;;;;;10.77;2.63;;;20.50;99.90;;;;;;5070019;28;20039;-48
2022/08/26 06:13:41;;;;;;;10.93;2.70;;;20.50;99.90;;;;;;5069837;28;20039;-45
2022/08/26 06:16:15;;;;;;;10.40;2.78;;;20.50;99.90;;;;;;5068601;28;20044;-48
2022/08/26 06:18:44;;;;;;;11.80;2.83;;;20.50;99.90;;;;;;5068514;28;20490;-45
2022/08/26 06:21:30;;;;;;;14.07;3.25;;;20.40;99.90;;;;;;5070011;28;20044;-46
2022/08/26 06:26:53;;;;;;;11.65;2.67;;;20.30;99.90;;;;;;5070018;28;20447;-45
2022/08/26 06:29:21;;;;;;;14.05;2.70;;;20.40;99.90;;;;;;5068943;28;20102;-50
2022/08/26 06:31:47;;;;;;;15.60;3.08;;;20.30;99.90;;;;;;5068660;28;20043;-46
2022/08/26 06:34:13;;;;;;;11.10;2.75;;;20.40;99.90;;;;;;5051301;28;20804;-44
2022/08/26 06:36:41;;;;;;;16.25;3.67;;;20.30;99.90;;;;;;5056008;28;20037;-51
2022/08/26 06:39:10;;;;;;;13.57;3.03;;;20.30;99.90;;;;;;5052690;28;20044;-47
2022/08/26 06:41:36;;;;;;;10.73;2.42;;;20.30;99.90;;;;;;5056010;28;20044;-45
2022/08/26 06:44:04;;;;;;;7.70;2.10;;;20.10;99.90;;;;;;5054809;28;20105;-47
2022/08/26 06:46:30;;;;;;;7.45;1.63;;;20.30;99.90;;;;;;5051527;28;20048;-46
2022/08/26 06:48:59;;;;;;;8.88;2.00;;;20.40;99.90;;;;;;5051360;28;20065;-49
2022/08/26 06:51:31;;;;;;;9.82;2.05;;;20.30;99.90;;;;;;5052761;28;20498;-46
2022/08/26 06:53:59;;;;;;;10.23;2.17;;;20.30;99.90;;;;;;5056767;28;20068;-47
2022/08/26 06:56:28;;;;;;;9.32;2.15;;;20.30;99.90;;;;;;5055417;28;20059;-43
2022/08/26 06:58:54;;;;;;;14.57;2.95;;;20.40;99.90;;;;;;5055843;28;20491;-48
2022/08/26 07:01:23;;;;;;;9.75;2.30;;;20.40;99.90;;;;;;5055520;28;20056;-47
2022/08/26 07:03:51;;;;;;;8.50;2.53;;;20.30;99.90;;;;;;5055298;28;20045;-45
2022/08/26 07:06:18;;;;;;;9.52;2.38;;;20.40;99.90;;;;;;5057450;28;20414;-48
2022/08/26 07:08:45;;;;;;;9.18;2.72;;;20.40;99.90;;;;;;5048193;28;20041;-48
2022/08/26 07:11:12;;;;;;;9.95;2.83;;;20.40;99.90;;;;;;5052946;28;20435;-46
2022/08/26 07:13:38;;;;;;;8.73;2.63;;;20.40;99.90;;;;;;5057623;28;20040;-47
2022/08/26 07:16:13;;;;;;;12.77;2.90;;;20.40;99.90;;;;;;5057330;28;20029;-46
2022/08/26 07:18:41;;;;;;;9.50;2.47;;;20.40;99.90;;;;;;5057456;28;20071;-45
2022/08/26 07:21:09;;;;;;;8.55;1.67;;;20.50;99.90;;;;;;5055018;28;20043;-45
2022/08/26 07:23:36;;;;;;;7.57;1.55;;;20.50;99.90;;;;;;5056279;28;20032;-47
2022/08/26 07:26:16;;;;;;;8.27;1.88;;;20.70;99.90;;;;;;5055266;28;20135;-47
2022/08/26 07:28:44;;;;;;;6.90;1.65;;;20.60;99.90;;;;;;5054644;28;20807;-50
2022/08/26 07:31:12;;;;;;;8.18;1.80;;;20.60;99.90;;;;;;5056876;28;20047;-47
2022/08/26 07:33:39;;;;;;;9.57;1.92;;;20.70;99.90;;;;;;5058035;28;20037;-48
2022/08/26 07:36:06;;;;;;;6.05;1.50;;;20.70;99.90;;;;;;5057287;28;20024;-48
2022/08/26 07:38:33;;;;;;;6.30;1.42;;;20.80;99.90;;;;;;5055502;28;20029;-45
2022/08/26 07:40:59;;;;;;;8.43;1.63;;;20.80;99.90;;;;;;5041595;28;20044;-45
2022/08/26 07:43:24;;;;;;;7.93;1.90;;;20.80;99.90;;;;;;5055626;28;20410;-46
2022/08/26 07:45:50;;;;;;;10.38;1.80;;;20.80;99.90;;;;;;5057869;28;20439;-49
2022/08/26 07:48:16;;;;;;;8.55;1.60;;;20.90;99.90;;;;;;5056572;28;20039;-48
2022/08/26 07:50:42;;;;;;;10.23;1.40;;;20.90;99.90;;;;;;5057529;28;20029;-48
2022/08/26 07:53:08;;;;;;;9.60;1.83;;;21.00;99.90;;;;;;5057707;28;20036;-48
2022/08/26 07:55:34;;;;;;;10.25;1.60;;;21.00;99.90;;;;;;5056594;28;20432;-48
2022/08/26 07:58:01;;;;;;;8.25;1.63;;;21.00;99.90;;;;;;5055307;28;20045;-51
2022/08/26 08:00:30;;;;;;;9.52;2.00;;;21.20;99.90;;;;;;5057699;28;20056;-50
2022/08/26 08:02:55;;;;;;;8.98;1.77;;;21.20;99.90;;;;;;5059474;28;20036;-49
2022/08/26 08:05:22;;;;;;;9.32;1.67;;;21.20;99.90;;;;;;5057798;28;20084;-48
2022/08/26 08:07:47;;;;;;;6.72;1.45;;;21.30;99.90;;;;;;5057075;28;20048;-50
2022/08/26 08:10:16;;;;;;;10.55;1.70;;;21.30;99.90;;;;;;5057334;28;20036;-48
2022/08/26 08:12:42;;;;;;;8.50;1.52;;;21.30;99.90;;;;;;5056099;28;20513;-51
2022/08/26 08:15:12;;;;;;;11.25;1.92;;;21.30;99.90;;;;;;5056040;28;20036;-49
2022/08/26 08:17:44;;;;;;;6.65;1.30;;;21.30;99.90;;;;;;5053172;28;20431;-49
2022/08/26 08:20:12;;;;;;;8.02;1.45;;;21.30;99.90;;;;;;5050690;28;20044;-51
2022/08/26 08:22:38;;;;;;;6.47;1.70;;;21.40;99.90;;;;;;5047885;28;20036;-48
2022/08/26 08:25:05;;;;;;;7.55;1.40;;;21.40;99.90;;;;;;5052538;28;20131;-48
2022/08/26 08:27:34;;;;;;;8.65;1.75;;;21.60;99.90;;;;;;5050528;28;20205;-49
2022/08/26 08:30:00;;;;;;;8.30;1.60;;;21.60;99.90;;;;;;5052032;28;20071;-48
2022/08/26 08:32:28;;;;;;;8.25;1.50;;;21.60;99.90;;;;;;5055182;28;20087;-46
2022/08/26 08:34:54;;;;;;;8.65;1.85;;;21.90;99.90;;;;;;5058026;28;20029;-50
2022/08/26 08:37:21;;;;;;;8.48;1.30;;;21.90;99.90;;;;;;5057676;28;20032;-48
2022/08/26 08:39:48;;;;;;;7.50;1.45;;;21.80;99.90;;;;;;5051671;28;20119;-50
2022/08/26 08:42:32;;;;;;;8.30;1.88;;;21.80;99.90;;;;;;5055295;28;20797;-51
2022/08/26 08:45:04;;;;;;;8.05;1.80;;;21.80;99.90;;;;;;5057753;28;20092;-51
2022/08/26 08:47:37;;;;;;;7.93;1.55;;;21.60;99.90;;;;;;5057470;28;20040;-46
2022/08/26 08:50:21;;;;;;;6.05;1.38;;;21.60;99.90;;;;;;5058201;28;20036;-46
2022/08/26 08:53:11;;;;;;;8.63;1.50;;;21.40;99.90;;;;;;5055196;28;20479;-49
2022/08/26 08:56:24;;;;;;;7.90;1.98;;;21.50;99.90;;;;;;5057895;28;20283;-48
2022/08/26 08:59:06;;;;;;;10.07;1.65;;;21.30;99.90;;;;;;5055151;28;20188;-51
2022/08/26 09:01:55;;;;;;;8.65;1.48;;;21.40;99.90;;;;;;5059224;28;20467;-51
2022/08/26 09:04:23;;;;;;;8.00;1.75;;;21.40;99.90;;;;;;5052541;28;20052;-48
2022/08/26 09:06:53;;;;;;;5.93;1.30;;;21.40;99.90;;;;;;5059178;28;20052;-50
2022/08/26 09:09:35;;;;;;;10.77;1.70;;;21.50;99.90;;;;;;5058565;28;20036;-49
2022/08/26 09:12:02;;;;;;;12.45;1.75;;;21.60;99.90;;;;;;5059664;28;20040;-47
2022/08/26 09:14:30;;;;;;;7.22;1.40;;;21.50;99.90;;;;;;5058836;28;20067;-50
2022/08/26 09:17:31;;;;;;;8.35;1.70;;;21.50;99.90;;;;;;5058034;28;20025;-48
2022/08/26 09:20:13;;;;;;;8.18;1.63;;;21.50;99.90;;;;;;5062665;28;20052;-52
2022/08/26 09:22:39;;;;;;;9.13;1.27;;;21.40;99.90;;;;;;5068624;28;20033;-46
2022/08/26 09:25:09;;;;;;;7.25;1.50;;;21.50;99.90;;;;;;5062816;28;20044;-47
2022/08/26 09:27:46;;;;;;;8.48;1.67;;;21.40;99.90;;;;;;5060542;28;20043;-48
2022/08/26 09:30:34;;;;;;;10.52;1.70;;;21.50;99.90;;;;;;5060133;28;20489;-50
2022/08/26 09:33:08;;;;;;;7.60;1.48;;;21.50;99.90;;;;;;5061211;28;20044;-51
2022/08/26 09:35:39;;;;;;;5.63;1.40;;;21.40;99.90;;;;;;5064153;28;20052;-48
2022/08/26 09:38:24;;;;;;;11.15;1.48;;;21.40;99.90;;;;;;5059117;28;20115;-49
2022/08/26 09:41:04;;;;;;;7.63;1.30;;;21.30;99.90;;;;;;5067648;28;20051;-48
2022/08/26 09:43:29;;;;;;;9.45;1.73;;;21.30;99.90;;;;;;5067269;28;20046;-50
2022/08/26 09:46:13;;;;;;;8.48;1.48;;;21.20;99.90;;;;;;5069441;28;20508;-51
2022/08/26 09:48:41;;;;;;;7.50;1.80;;;21.30;99.90;;;;;;5069875;28;20044;-50
2022/08/26 09:51:21;;;;;;;6.47;1.40;;;21.20;99.90;;;;;;5069891;28;20086;-50
2022/08/26 09:53:54;;;;;;;7.45;1.45;;;21.30;99.90;;;;;;5070316;28;20040;-48
2022/08/26 09:56:24;;;;;;;7.78;1.50;;;21.20;99.90;;;;;;5069489;28;20036;-50
2022/08/26 09:58:50;;;;;;;8.77;1.73;;;21.20;99.90;;;;;;5069878;28;20044;-48
2022/08/26 10:01:32;;;;;;;8.18;1.30;;;21.20;99.90;;;;;;5070101;28;20040;-49
2022/08/26 10:04:03;;;;;;;7.72;1.30;;;21.10;99.90;;;;;;5070218;28;20067;-46
2022/08/26 10:06:29;;;;;;;7.70;1.40;;;21.10;99.90;;;;;;5069553;28;20048;-46
2022/08/26 10:08:58;;;;;;;6.35;1.20;;;21.10;99.90;;;;;;5069666;28;20396;-46
2022/08/26 10:11:26;;;;;;;10.23;1.60;;;21.10;99.90;;;;;;5069758;28;20063;-51
2022/08/26 10:14:08;;;;;;;7.22;1.20;;;21.00;99.90;;;;;;5070093;28;20032;-47
2022/08/26 10:16:49;;;;;;;9.55;1.95;;;21.10;99.90;;;;;;5069953;28;20082;-48
2022/08/26 10:19:20;;;;;;;9.25;2.33;;;21.10;99.90;;;;;;5070014;28;20473;-47
2022/08/26 10:21:58;;;;;;;7.78;1.70;;;21.10;99.90;;;;;;5070109;28;20040;-52
2022/08/26 10:24:53;;;;;;;7.05;1.30;;;21.20;99.90;;;;;;5070064;28;20044;-52
2022/08/26 10:27:35;;;;;;;5.90;1.20;;;21.30;99.90;;;;;;5068894;28;20053;-50
2022/08/26 10:30:09;;;;;;;8.90;1.20;;;21.20;99.90;;;;;;5069811;28;20037;-49
2022/08/26 10:32:47;;;;;;;6.03;0.95;;;21.30;99.90;;;;;;5070098;28;20445;-47
2022/08/26 10:35:15;;;;;;;6.78;1.17;;;21.20;99.90;;;;;;5069702;28;20039;-50
2022/08/26 10:37:48;;;;;;;6.60;1.00;;;21.40;99.90;;;;;;5069942;28;20075;-48
2022/08/26 10:40:26;;;;;;;6.75;1.05;;;21.50;99.90;;;;;;5071751;28;20116;-49
2022/08/26 10:43:08;;;;;;;4.72;0.68;;;21.60;99.90;;;;;;5073608;28;20058;-47
2022/08/26 10:45:41;;;;;;;3.42;0.90;;;21.60;99.90;;;;;;5073240;28;20147;-47
2022/08/26 10:48:11;;;;;;;6.28;0.80;;;21.70;99.90;;;;;;5073705;28;20121;-51
2022/08/26 10:50:44;;;;;;;8.88;0.95;;;21.60;99.90;;;;;;5073505;28;20534;-47
2022/08/26 10:53:19;;;;;;;3.45;0.68;;;21.70;99.90;;;;;;5073448;28;20441;-48
2022/08/26 10:56:00;;;;;;;5.93;0.80;;;21.70;99.90;;;;;;5072967;28;20044;-47
2022/08/26 10:58:56;;;;;;;7.13;0.90;;;21.80;99.90;;;;;;5073279;28;20059;-49
2022/08/26 11:01:42;;;;;;;5.75;1.00;;;21.90;99.90;;;;;;5073319;28;20572;-49
2022/08/26 11:04:08;;;;;;;5.30;0.90;;;21.80;99.90;;;;;;5073077;28;20051;-47
2022/08/26 11:06:34;;;;;;;10.60;1.33;;;21.70;99.90;;;;;;5073124;28;20040;-48
2022/08/26 11:09:07;;;;;;;4.93;0.88;;;21.70;99.90;;;;;;5072422;28;20040;-50
2022/08/26 11:11:38;;;;;;;3.95;0.80;;;21.70;99.90;;;;;;5073666;28;20585;-47
2022/08/26 11:14:09;;;;;;;4.28;0.70;;;21.70;99.90;;;;;;5072887;28;20094;-49
2022/08/26 11:16:43;;;;;;;6.05;1.20;;;21.80;99.90;;;;;;5072911;28;20040;-49
2022/08/26 11:19:28;;;;;;;4.70;1.08;;;22.00;99.90;;;;;;5072884;28;20124;-49
2022/08/26 11:22:03;;;;;;;5.32;0.82;;;21.90;99.90;;;;;;5072883;28;20036;-50
2022/08/26 11:24:53;;;;;;;8.30;1.30;;;21.80;99.90;;;;;;5072654;28;20476;-47
2022/08/26 11:27:25;;;;;;;4.88;1.05;;;21.90;99.90;;;;;;5072791;28;20083;-49
2022/08/26 11:30:27;;;;;;;6.20;1.10;;;21.80;99.90;;;;;;5071801;28;20037;-48
2022/08/26 11:32:57;;;;;;;4.15;0.80;;;21.70;99.90;;;;;;5072387;28;20045;-51
2022/08/26 11:35:23;;;;;;;6.50;1.15;;;21.70;99.90;;;;;;5072471;28;20036;-48
2022/08/26 11:38:01;;;;;;;5.63;1.00;;;21.80;99.90;;;;;;5072567;28;20036;-48
2022/08/26 11:40:32;;;;;;;5.63;1.17;;;21.90;99.90;;;;;;5072436;28;20047;-49
2022/08/26 11:43:02;;;;;;;5.45;1.15;;;21.70;99.90;;;;;;5072550;28;20115;-47
2022/08/26 11:45:39;;;;;;;4.75;1.15;;;21.70;99.90;;;;;;5072001;28;20098;-49
2022/08/26 11:48:20;;;;;;;5.20;0.88;;;21.60;99.90;;;;;;5072325;28;20044;-48
2022/08/26 11:51:07;;;;;;;7.13;1.10;;;21.50;99.90;;;;;;5071691;28;20036;-50
2022/08/26 11:53:36;;;;;;;7.28;1.10;;;21.50;99.90;;;;;;5072299;28;20525;-49
2022/08/26 11:56:23;;;;;;;6.00;1.08;;;21.50;99.90;;;;;;5072297;28;20048;-49
2022/08/26 11:58:53;;;;;;;4.97;1.13;;;21.70;99.90;;;;;;5072127;28;20090;-48
2022/08/26 12:01:28;;;;;;;7.72;1.30;;;21.80;99.90;;;;;;5071850;28;20387;-48
2022/08/26 12:03:54;;;;;;;3.45;0.70;;;22.00;99.90;;;;;;5070585;28;20060;-51
2022/08/26 12:06:44;;;;;;;4.90;0.90;;;22.20;99.90;;;;;;5071693;28;20066;-47
2022/08/26 12:09:19;;;;;;;5.13;0.98;;;22.30;99.90;;;;;;5071694;28;20490;-47
2022/08/26 12:11:44;;;;;;;6.28;0.80;;;22.50;99.90;;;;;;5071996;28;20047;-48
2022/08/26 12:14:23;;;;;;;5.38;0.70;;;22.50;99.90;;;;;;5071353;28;20481;-50
2022/08/26 12:16:49;;;;;;;5.40;0.65;;;22.50;99.90;;;;;;5071899;28;20178;-49
2022/08/26 12:19:32;;;;;;;3.38;0.77;;;22.50;99.90;;;;;;5071760;28;20036;-50
2022/08/26 12:22:12;;;;;;;3.80;0.70;;;22.40;99.90;;;;;;5071833;28;20036;-50
2022/08/26 12:24:45;;;;;;;5.13;0.80;;;22.30;99.90;;;;;;5071627;28;20472;-51
2022/08/26 12:27:20;;;;;;;5.07;0.97;;;22.10;99.90;;;;;;5071739;28;20032;-49
2022/08/26 12:30:04;;;;;;;4.68;0.90;;;22.00;99.90;;;;;;5071568;28;20085;-50
2022/08/26 12:32:30;;;;;;;5.75;1.02;;;22.00;99.90;;;;;;5071651;28;20036;-46
2022/08/26 12:34:57;;;;;;;5.32;0.93;;;22.00;99.90;;;;;;5071120;28;20039;-49
2022/08/26 12:37:25;;;;;;;5.78;1.20;;;22.10;99.90;;;;;;5071489;28;20422;-48
2022/08/26 12:39:51;;;;;;;4.63;0.80;;;22.10;99.90;;;;;;5071076;28;20044;-49
2022/08/26 12:42:38;;;;;;;7.07;1.20;;;22.10;99.90;;;;;;5071056;28;20040;-49
2022/08/26 12:45:06;;;;;;;7.85;1.48;;;21.80;99.90;;;;;;5070809;28;20098;-47
2022/08/26 12:47:33;;;;;;;4.60;0.85;;;21.90;99.90;;;;;;5071296;28;20052;-49
2022/08/26 12:50:06;;;;;;;7.63;1.05;;;22.00;99.90;;;;;;5071129;28;20387;-47
2022/08/26 12:52:59;;;;;;;5.85;1.10;;;22.10;99.90;;;;;;5069782;28;20048;-49
2022/08/26 12:55:26;;;;;;;5.20;0.90;;;22.30;99.90;;;;;;5071102;28;20084;-48
2022/08/26 12:58:15;;;;;;;5.85;1.02;;;22.20;99.90;;;;;;5069511;28;20101;-48
2022/08/26 13:00:44;;;;;;;5.35;0.77;;;22.30;99.90;;;;;;5070393;28;20040;-48
2022/08/26 13:03:31;;;;;;;5.57;0.93;;;22.70;99.90;;;;;;5069836;28;20090;-47